createdAt,value
2022-08-03T00:02:19.499Z,2.67
2022-08-03T00:04:47.572Z,2.43
2022-08-03T00:07:17.377Z,2.80
2022-08-03T00:10:06.619Z,2.67
2022-08-03T00:12:36.316Z,2.93
2022-08-03T00:15:09.514Z,2.97
2022-08-03T00:17:53.600Z,2.60
2022-08-03T00:20:22.166Z,2.90
2022-08-03T00:22:51.767Z,2.63
2022-08-03T00:25:20.172Z,3.33
2022-08-03T00:27:48.457Z,2.20
2022-08-03T00:30:18.256Z,3.37
2022-08-03T00:32:46.124Z,3.10
2022-08-03T00:35:25.981Z,3.07
2022-08-03T00:38:03.404Z,2.90
2022-08-03T00:40:31.461Z,2.90
2022-08-03T00:43:00.744Z,3.10
2022-08-03T00:45:30.884Z,3.20
2022-08-03T00:47:59.771Z,2.63
2022-08-03T00:50:29.305Z,3.00
2022-08-03T00:52:59.156Z,3.20
2022-08-03T00:55:28.513Z,3.03
2022-08-03T00:57:56.954Z,3.60
2022-08-03T01:00:27.049Z,2.80
2022-08-03T01:02:55.758Z,3.20
2022-08-03T01:05:23.835Z,3.10
2022-08-03T01:08:04.361Z,2.93
2022-08-03T01:10:40.854Z,3.17
2022-08-03T01:14:01.509Z,3.53
2022-08-03T01:16:15.075Z,3.10
2022-08-03T01:18:48.275Z,3.27
2022-08-03T01:21:27.579Z,3.43
2022-08-03T01:24:05.309Z,3.17
2022-08-03T01:26:56.664Z,3.23
2022-08-03T01:29:53.429Z,3.00
2022-08-03T01:32:54.534Z,3.10
2022-08-03T01:35:13.723Z,2.83
2022-08-03T01:37:46.294Z,3.70
2022-08-03T01:40:15.342Z,3.30
2022-08-03T01:42:45.163Z,3.00
2022-08-03T01:45:17.882Z,3.30
2022-08-03T01:47:47.637Z,3.17
2022-08-03T01:50:18.271Z,3.20
2022-08-03T01:52:47.908Z,3.10
2022-08-03T01:55:20.189Z,3.10
2022-08-03T01:58:06.024Z,3.40
2022-08-03T02:00:37.648Z,3.53
2022-08-03T02:03:07.012Z,3.30
2022-08-03T02:05:36.248Z,3.30
2022-08-03T02:08:06.163Z,3.37
2022-08-03T02:10:37.023Z,3.20
2022-08-03T02:13:08.187Z,4.03
2022-08-03T02:15:38.794Z,3.33
2022-08-03T02:18:10.287Z,3.80
2022-08-03T02:20:40.051Z,3.70
2022-08-03T02:23:08.463Z,3.17
2022-08-03T02:25:42.875Z,3.60
2022-08-03T02:28:15.878Z,3.70
2022-08-03T02:30:51.803Z,3.40
2022-08-03T02:33:26.043Z,3.73
2022-08-03T02:35:55.130Z,3.77
2022-08-03T02:38:29.103Z,3.87
2022-08-03T02:40:59.125Z,3.40
2022-08-03T02:43:27.958Z,3.27
2022-08-03T02:46:10.661Z,2.90
2022-08-03T02:48:42.238Z,3.37
2022-08-03T02:51:10.598Z,3.80
2022-08-03T02:53:39.936Z,3.60
2022-08-03T02:56:09.848Z,3.90
2022-08-03T02:58:39.719Z,3.77
2022-08-03T03:01:09.669Z,3.67
2022-08-03T03:03:44.609Z,3.83
2022-08-03T03:06:14.526Z,3.77
2022-08-03T03:08:43.351Z,3.40
2022-08-03T03:11:12.524Z,3.50
2022-08-03T03:13:42.835Z,4.00
2022-08-03T03:16:14.659Z,3.53
2022-08-03T03:18:44.356Z,3.63
2022-08-03T03:21:12.540Z,4.10
2022-08-03T03:23:42.460Z,3.53
2022-08-03T03:26:10.695Z,4.17
2022-08-03T03:28:38.846Z,3.53
2022-08-03T03:31:07.442Z,4.10
2022-08-03T03:33:38.422Z,3.67
2022-08-03T03:36:07.475Z,4.13
2022-08-03T03:38:35.987Z,3.73
2022-08-03T03:41:05.367Z,3.70
2022-08-03T03:43:33.553Z,3.87
2022-08-03T03:46:02.167Z,4.00
2022-08-03T03:48:30.182Z,4.00
2022-08-03T03:51:02.135Z,4.40
2022-08-03T03:53:30.079Z,4.30
2022-08-03T03:56:01.914Z,3.40
2022-08-03T03:58:31.830Z,3.70
2022-08-03T04:00:59.932Z,4.20
2022-08-03T04:03:28.027Z,4.10
2022-08-03T04:06:13.560Z,3.67
2022-08-03T04:09:15.109Z,4.27
2022-08-03T04:11:46.739Z,4.10
2022-08-03T04:14:18.807Z,3.93
2022-08-03T04:16:50.199Z,3.70
2022-08-03T04:19:23.406Z,4.70
2022-08-03T04:21:53.706Z,4.60
2022-08-03T04:24:31.445Z,4.27
2022-08-03T04:27:01.784Z,3.97
2022-08-03T04:29:30.579Z,4.10
2022-08-03T04:32:00.865Z,4.50
2022-08-03T04:34:31.452Z,4.13
2022-08-03T04:37:01.257Z,3.70
2022-08-03T04:39:33.180Z,4.60
2022-08-03T04:42:16.975Z,4.17
2022-08-03T04:44:47.837Z,5.50
2022-08-03T04:47:16.117Z,5.80
2022-08-03T04:49:44.563Z,3.40
2022-08-03T04:52:12.863Z,4.60
2022-08-03T04:54:43.101Z,4.07
2022-08-03T04:57:22.989Z,3.80
2022-08-03T04:59:58.234Z,3.70
2022-08-03T05:02:30.230Z,4.50
2022-08-03T05:04:58.700Z,4.03
2022-08-03T05:07:35.681Z,4.30
2022-08-03T05:10:15.203Z,4.70
2022-08-03T05:12:45.684Z,4.10
2022-08-03T05:15:14.050Z,3.60
2022-08-03T05:17:42.681Z,4.50
2022-08-03T05:20:12.024Z,4.10
2022-08-03T05:22:39.950Z,3.40
2022-08-03T05:25:09.828Z,3.90
2022-08-03T05:27:45.297Z,4.03
2022-08-03T05:30:31.202Z,4.80
2022-08-03T05:33:01.931Z,4.10
2022-08-03T05:35:57.567Z,3.90
2022-08-03T05:38:23.693Z,4.20
2022-08-03T05:40:56.751Z,3.90
2022-08-03T05:43:26.045Z,4.50
2022-08-03T05:46:12.455Z,4.17
2022-08-03T05:48:41.624Z,4.50
2022-08-03T05:51:11.455Z,4.10
2022-08-03T05:53:40.070Z,3.63
2022-08-03T05:56:14.203Z,4.10
2022-08-03T05:58:44.628Z,4.07
2022-08-03T06:01:12.711Z,4.27
2022-08-03T06:03:41.187Z,3.63
2022-08-03T06:06:09.121Z,3.60
2022-08-03T06:08:37.035Z,3.77
2022-08-03T06:11:05.299Z,3.40
2022-08-03T06:13:34.810Z,4.10
2022-08-03T06:16:02.861Z,3.43
2022-08-03T06:18:31.102Z,3.50
2022-08-03T06:21:14.454Z,3.33
2022-08-03T06:23:54.418Z,3.30
2022-08-03T06:26:28.654Z,3.90
2022-08-03T06:28:57.957Z,3.33
2022-08-03T06:31:33.348Z,3.43
2022-08-03T06:34:34.015Z,3.63
2022-08-03T06:36:52.186Z,3.33
2022-08-03T06:39:20.810Z,3.10
2022-08-03T06:41:52.616Z,3.77
2022-08-03T06:44:21.925Z,3.47
2022-08-03T06:46:51.124Z,3.53
2022-08-03T06:49:19.075Z,3.00
2022-08-03T06:52:05.997Z,3.30
2022-08-03T06:54:36.655Z,3.23
2022-08-03T06:57:05.654Z,2.90
2022-08-03T07:00:11.052Z,3.20
2022-08-03T07:02:22.833Z,3.77
2022-08-03T07:04:50.848Z,2.87
2022-08-03T07:07:19.265Z,3.03
2022-08-03T07:09:57.536Z,3.00
2022-08-03T07:12:27.771Z,2.60
2022-08-03T07:15:01.320Z,3.00
2022-08-03T07:17:31.086Z,3.10
2022-08-03T07:19:59.394Z,2.87
2022-08-03T07:22:27.397Z,2.87
2022-08-03T07:24:55.408Z,3.07
2022-08-03T07:27:23.443Z,3.43
2022-08-03T07:29:51.378Z,2.67
2022-08-03T07:32:20.590Z,2.97
2022-08-03T07:34:48.476Z,2.80
2022-08-03T07:37:16.446Z,2.60
2022-08-03T07:39:44.679Z,3.47
2022-08-03T07:42:12.543Z,3.00
2022-08-03T07:44:40.479Z,3.20
2022-08-03T07:47:08.383Z,3.53
2022-08-03T07:49:42.277Z,2.40
2022-08-03T07:52:28.220Z,2.70
2022-08-03T07:54:56.595Z,3.07
2022-08-03T07:57:24.881Z,2.57
2022-08-03T08:00:01.677Z,3.00
2022-08-03T08:02:40.020Z,2.90
2022-08-03T08:05:10.753Z,2.87
2022-08-03T08:07:39.152Z,2.87
2022-08-03T08:10:08.305Z,2.70
2022-08-03T08:12:36.441Z,3.03
2022-08-03T08:15:05.323Z,3.27
2022-08-03T08:17:41.755Z,2.80
2022-08-03T08:20:13.487Z,3.00
2022-08-03T08:22:46.074Z,2.67
2022-08-03T08:25:14.535Z,3.00
2022-08-03T08:28:31.033Z,2.50
2022-08-03T08:30:36.972Z,2.63
2022-08-03T08:33:04.963Z,2.70
2022-08-03T08:35:34.184Z,2.57
2022-08-03T08:38:04.105Z,3.43
2022-08-03T08:40:34.154Z,2.73
2022-08-03T08:43:03.275Z,2.83
2022-08-03T08:45:31.376Z,3.20
2022-08-03T08:48:07.874Z,2.60
2022-08-03T08:50:39.747Z,2.83
2022-08-03T08:53:09.891Z,2.50
2022-08-03T08:55:58.851Z,2.73
2022-08-03T08:58:32.039Z,2.13
2022-08-03T09:01:00.239Z,2.60
2022-08-03T09:03:30.819Z,2.57
2022-08-03T09:06:02.147Z,2.13
2022-08-03T09:08:30.876Z,2.30
2022-08-03T09:10:58.840Z,2.50
2022-08-03T09:13:26.991Z,2.43
2022-08-03T09:16:10.807Z,2.43
2022-08-03T09:18:39.176Z,2.57
2022-08-03T09:21:37.825Z,2.40
2022-08-03T09:24:13.274Z,2.60
2022-08-03T09:26:53.707Z,2.50
2022-08-03T09:29:22.746Z,2.47
2022-08-03T09:31:50.789Z,2.80
2022-08-03T09:34:19.547Z,2.23
2022-08-03T09:36:50.219Z,2.20
2022-08-03T09:39:19.332Z,2.60
2022-08-03T09:41:49.118Z,2.37
2022-08-03T09:44:25.741Z,2.33
2022-08-03T09:46:55.821Z,2.73
2022-08-03T09:49:24.332Z,2.77
2022-08-03T09:52:32.735Z,2.70
2022-08-03T09:54:43.345Z,2.73
2022-08-03T09:57:23.290Z,2.10
2022-08-03T09:59:55.983Z,2.50
2022-08-03T10:02:41.007Z,2.53
2022-08-03T10:05:19.631Z,3.17
2022-08-03T10:07:50.486Z,2.90
2022-08-03T10:10:30.994Z,2.87
2022-08-03T10:13:01.243Z,2.90
2022-08-03T10:16:22.879Z,2.87
2022-08-03T10:18:17.520Z,2.47
2022-08-03T10:20:50.217Z,2.30
2022-08-03T10:23:20.852Z,2.30
2022-08-03T10:25:50.861Z,2.80
2022-08-03T10:28:20.546Z,2.87
2022-08-03T10:30:51.201Z,2.53
2022-08-03T10:33:50.232Z,2.97
2022-08-03T10:36:09.959Z,3.50
2022-08-03T10:38:46.014Z,2.40
2022-08-03T10:41:14.504Z,3.00
2022-08-03T10:43:49.431Z,2.97
2022-08-03T10:46:18.651Z,2.70
2022-08-03T10:48:48.214Z,3.27
2022-08-03T10:55:52.165Z,2.97
2022-08-03T10:58:57.752Z,2.73
2022-08-03T11:05:41.466Z,3.30
2022-08-03T11:08:35.437Z,2.83
2022-08-03T11:11:29.426Z,3.20
2022-08-03T11:13:59.557Z,2.70
2022-08-03T11:16:28.828Z,2.87
2022-08-03T11:18:58.768Z,2.80
2022-08-03T11:21:54.474Z,2.40
2022-08-03T11:25:53.969Z,2.93
2022-08-03T11:28:29.045Z,2.57
2022-08-03T11:31:46.787Z,2.73
2022-08-03T11:34:07.330Z,2.80
2022-08-03T11:37:08.968Z,2.70
2022-08-03T11:39:40.271Z,2.13
2022-08-03T11:42:41.733Z,2.23
2022-08-03T11:45:11.297Z,2.90
2022-08-03T11:47:50.871Z,2.63
2022-08-03T11:50:20.158Z,2.73
2022-08-03T11:52:49.158Z,2.77
2022-08-03T11:55:20.400Z,2.87
2022-08-03T11:59:00.756Z,2.60
2022-08-03T12:00:38.762Z,2.30
2022-08-03T12:03:09.003Z,2.33
2022-08-03T12:05:42.188Z,2.60
2022-08-03T12:08:30.297Z,2.20
2022-08-03T12:11:00.492Z,2.40
2022-08-03T12:14:44.395Z,2.57
2022-08-03T12:16:28.650Z,2.50
2022-08-03T12:18:57.784Z,2.67
2022-08-03T12:21:26.195Z,2.53
2022-08-03T12:23:58.993Z,2.40
2022-08-03T12:26:27.939Z,2.40
2022-08-03T12:28:55.937Z,2.23
2022-08-03T12:31:25.895Z,2.30
2022-08-03T12:33:59.235Z,2.50
2022-08-03T12:36:28.476Z,2.57
2022-08-03T12:38:57.957Z,2.50
2022-08-03T12:41:30.687Z,2.70
2022-08-03T12:43:58.707Z,2.70
2022-08-03T12:46:34.117Z,2.27
2022-08-03T12:49:09.446Z,2.10
2022-08-03T12:51:39.160Z,2.43
2022-08-03T12:54:07.245Z,2.40
2022-08-03T12:56:35.975Z,2.30
2022-08-03T12:59:24.890Z,2.80
2022-08-03T13:02:01.910Z,2.30
2022-08-03T13:04:35.267Z,2.63
2022-08-03T13:07:05.020Z,2.10
2022-08-03T13:09:43.212Z,2.50
2022-08-03T13:12:13.137Z,2.57
2022-08-03T13:14:41.684Z,2.70
2022-08-03T13:17:11.232Z,2.40
2022-08-03T13:19:40.312Z,2.33
2022-08-03T13:22:15.723Z,3.10
2022-08-03T13:24:44.713Z,2.20
2022-08-03T13:28:01.661Z,1.90
2022-08-03T13:30:01.431Z,2.17
2022-08-03T13:32:30.892Z,2.63
2022-08-03T13:34:58.913Z,2.50
2022-08-03T13:37:27.556Z,2.17
2022-08-03T13:40:00.131Z,2.37
2022-08-03T13:42:32.440Z,3.30
2022-08-03T13:45:01.708Z,2.37
2022-08-03T13:47:31.164Z,2.13
2022-08-03T13:50:01.825Z,2.70
2022-08-03T13:52:35.015Z,2.80
2022-08-03T13:55:04.534Z,2.00
2022-08-03T13:58:02.919Z,2.77
2022-08-03T14:00:27.077Z,2.37
2022-08-03T14:03:05.318Z,2.10
2022-08-03T14:05:35.799Z,1.77
2022-08-03T14:08:05.691Z,1.90
2022-08-03T14:10:38.394Z,2.20
2022-08-03T14:13:07.291Z,2.10
2022-08-03T14:15:38.127Z,2.00
2022-08-03T14:18:12.903Z,2.00
2022-08-03T14:20:48.727Z,2.10
2022-08-03T14:23:18.754Z,2.13
2022-08-03T14:25:52.011Z,2.60
2022-08-03T14:28:26.658Z,2.17
2022-08-03T14:30:55.886Z,2.80
2022-08-03T14:33:25.415Z,2.13
2022-08-03T14:35:54.485Z,2.50
2022-08-03T14:38:23.381Z,2.07
2022-08-03T14:40:53.094Z,2.13
2022-08-03T14:43:21.683Z,2.10
2022-08-03T14:45:52.220Z,2.07
2022-08-03T14:50:24.493Z,2.40
2022-08-03T14:51:10.156Z,2.40
2022-08-03T14:53:38.427Z,2.30
2022-08-03T14:56:10.438Z,2.50
2022-08-03T14:58:39.167Z,1.90
2022-08-03T15:02:04.702Z,2.63
2022-08-03T15:03:55.739Z,2.27
2022-08-03T15:06:25.669Z,2.33
2022-08-03T15:09:22.472Z,2.03
2022-08-03T15:11:42.888Z,2.30
2022-08-03T15:14:10.873Z,2.20
2022-08-03T15:16:42.036Z,1.93
2022-08-03T15:20:01.316Z,2.30
2022-08-03T15:22:01.046Z,2.03
2022-08-03T15:24:30.133Z,1.80
2022-08-03T15:26:58.163Z,1.90
2022-08-03T15:30:06.791Z,2.13
2022-08-03T15:32:14.341Z,1.70
2022-08-03T15:34:42.260Z,2.07
2022-08-03T15:37:20.769Z,2.00
2022-08-03T15:39:59.053Z,2.33
2022-08-03T15:42:29.270Z,2.20
2022-08-03T15:44:57.551Z,1.80
2022-08-03T15:47:25.756Z,2.70
2022-08-03T15:49:54.244Z,2.50
2022-08-03T15:52:23.547Z,2.50
2022-08-03T15:54:51.624Z,2.20
2022-08-03T15:57:19.958Z,1.50
2022-08-03T15:59:48.142Z,1.70
2022-08-03T16:02:16.872Z,2.20
2022-08-03T16:04:44.914Z,1.83
2022-08-03T16:07:15.593Z,1.80
2022-08-03T16:09:44.855Z,1.83
2022-08-03T16:12:15.903Z,1.80
2022-08-03T16:14:52.412Z,1.90
2022-08-03T16:17:21.610Z,2.20
2022-08-03T16:19:49.936Z,2.10
2022-08-03T16:22:19.582Z,1.93
2022-08-03T16:24:51.457Z,2.20
2022-08-03T16:27:36.970Z,2.10
2022-08-03T16:30:09.721Z,2.30
2022-08-03T16:32:39.705Z,2.03
2022-08-03T16:35:08.478Z,2.07
2022-08-03T16:37:39.047Z,1.90
2022-08-03T16:40:17.344Z,1.70
2022-08-03T16:42:47.649Z,2.57
2022-08-03T16:45:15.793Z,1.90
2022-08-03T16:47:43.875Z,2.27
2022-08-03T16:50:18.916Z,2.13
2022-08-03T16:52:50.209Z,2.03
2022-08-03T16:55:52.080Z,1.80
2022-08-03T16:58:07.781Z,1.80
2022-08-03T17:00:41.880Z,2.20
2022-08-03T17:03:18.777Z,1.90
2022-08-03T17:05:49.819Z,1.77
2022-08-03T17:08:26.751Z,2.13
2022-08-03T17:10:56.940Z,2.00
2022-08-03T17:13:27.592Z,1.93
2022-08-03T17:16:09.533Z,1.97
2022-08-03T17:18:42.259Z,1.93
2022-08-03T17:21:18.366Z,2.40
2022-08-03T17:23:55.612Z,2.40
2022-08-03T17:26:30.542Z,1.80
2022-08-03T17:29:09.778Z,2.07
2022-08-03T17:31:48.684Z,1.90
2022-08-03T17:34:17.808Z,2.33
2022-08-03T17:37:04.786Z,2.57
2022-08-03T17:48:01.797Z,1.70
2022-08-03T17:50:49.893Z,1.83
2022-08-03T17:53:24.696Z,2.00
2022-08-03T17:56:44.838Z,1.90
2022-08-03T17:59:08.345Z,1.77
2022-08-03T18:02:10.527Z,2.20
2022-08-03T18:05:00.648Z,2.20
2022-08-03T18:07:41.031Z,2.00
2022-08-03T18:10:11.328Z,1.90
2022-08-03T18:12:51.603Z,1.93
2022-08-03T18:15:25.727Z,1.90
2022-08-03T18:18:01.386Z,1.80
2022-08-03T18:23:36.302Z,1.57
2022-08-03T18:26:11.904Z,2.07
2022-08-03T18:28:41.498Z,2.00
2022-08-03T18:31:59.873Z,1.83
2022-08-03T18:34:32.504Z,2.00
2022-08-03T18:36:51.272Z,1.87
2022-08-03T18:39:23.132Z,2.10
2022-08-03T18:41:51.180Z,2.30
2022-08-03T18:44:53.140Z,1.83
2022-08-03T18:47:52.545Z,2.13
2022-08-03T18:50:29.323Z,2.20
2022-08-03T18:53:05.395Z,2.00
2022-08-03T18:56:01.392Z,1.70
2022-08-03T18:58:36.069Z,1.60
2022-08-03T19:01:58.217Z,2.17
2022-08-03T19:04:09.972Z,2.30
2022-08-03T19:06:44.764Z,1.90
2022-08-03T19:09:20.999Z,1.90
2022-08-03T19:12:11.166Z,2.00
2022-08-03T19:14:45.744Z,1.93
2022-08-03T19:17:21.266Z,1.93
2022-08-03T19:19:52.281Z,2.13
2022-08-03T19:22:22.932Z,2.30
2022-08-03T19:24:52.975Z,1.67
2022-08-03T19:27:26.748Z,2.23
2022-08-03T19:30:01.229Z,1.87
2022-08-03T19:32:34.106Z,2.00
2022-08-03T19:35:03.708Z,1.53
2022-08-03T19:37:38.578Z,2.13
2022-08-03T19:40:10.612Z,1.87
2022-08-03T19:42:45.512Z,2.20
2022-08-03T19:46:04.678Z,2.07
2022-08-03T19:48:29.278Z,1.93
2022-08-03T19:50:59.858Z,2.10
2022-08-03T19:53:35.268Z,2.10
2022-08-03T19:56:07.087Z,2.20
2022-08-03T19:58:36.340Z,2.13
2022-08-03T20:01:19.507Z,2.00
2022-08-03T20:03:50.766Z,2.80
2022-08-03T20:06:22.333Z,1.80
2022-08-03T20:08:52.711Z,3.17
2022-08-03T20:11:28.803Z,2.17
2022-08-03T20:13:59.024Z,1.70
2022-08-03T20:16:27.613Z,2.13
2022-08-03T20:18:55.967Z,2.23
2022-08-03T20:21:28.220Z,2.10
2022-08-03T20:24:23.777Z,3.23
2022-08-03T20:26:55.414Z,2.00
2022-08-03T20:29:42.679Z,1.90
2022-08-03T20:35:11.695Z,2.20
2022-08-03T20:37:40.043Z,2.40
2022-08-03T20:40:13.176Z,2.30
2022-08-03T20:42:42.363Z,2.20
2022-08-03T20:45:13.958Z,2.23
2022-08-03T20:48:01.688Z,2.63
2022-08-03T20:50:31.391Z,1.63
2022-08-03T20:53:02.688Z,2.57
2022-08-03T20:55:48.274Z,2.60
2022-08-03T20:58:23.885Z,2.53
2022-08-03T21:00:52.328Z,2.33
2022-08-03T21:03:20.416Z,2.20
2022-08-03T21:05:53.429Z,2.57
2022-08-03T21:08:23.587Z,2.60
2022-08-03T21:10:54.354Z,2.60
2022-08-03T21:12:55.020Z,2.20
2022-08-03T21:13:04.278Z,1.37
2022-08-03T21:13:05.734Z,1.90
2022-08-03T21:13:07.091Z,2.10
2022-08-03T21:13:25.710Z,2.07
2022-08-03T21:16:06.127Z,2.47
2022-08-03T21:18:47.572Z,2.30
2022-08-03T21:21:19.246Z,2.43
2022-08-03T21:23:51.061Z,2.17
2022-08-03T21:26:21.713Z,3.10
2022-08-03T21:28:51.411Z,2.80
2022-08-03T21:31:25.171Z,2.70
2022-08-03T21:33:56.293Z,2.50
2022-08-03T21:36:24.962Z,2.40
2022-08-03T21:38:56.253Z,2.60
2022-08-03T21:41:27.319Z,2.80
2022-08-03T21:43:55.597Z,2.90
2022-08-03T21:46:28.512Z,2.33
2022-08-03T21:50:04.710Z,2.50
2022-08-03T21:51:51.240Z,3.10
2022-08-03T21:54:21.833Z,2.70
2022-08-03T21:56:55.642Z,2.80
2022-08-03T21:59:24.592Z,3.33
2022-08-03T22:01:55.276Z,2.67
2022-08-03T22:04:50.706Z,2.97
2022-08-03T22:07:15.949Z,3.00
2022-08-03T22:09:50.921Z,2.93
2022-08-03T22:12:22.830Z,2.77
2022-08-03T22:15:01.064Z,2.37
2022-08-03T22:17:55.987Z,2.70
2022-08-03T22:20:19.477Z,2.50
2022-08-03T22:22:55.540Z,2.50
2022-08-03T22:25:28.829Z,2.57
2022-08-03T22:28:00.959Z,3.20
2022-08-03T22:30:29.687Z,2.00
2022-08-03T22:33:00.125Z,2.10
2022-08-03T22:35:28.740Z,3.13
2022-08-03T22:37:59.743Z,2.67
2022-08-03T22:40:28.788Z,2.67
2022-08-03T22:42:58.937Z,3.37
2022-08-03T22:46:07.735Z,3.03
2022-08-03T22:48:17.790Z,3.00
2022-08-03T22:50:46.819Z,3.20
2022-08-03T22:53:18.123Z,3.00
2022-08-03T22:55:46.705Z,2.93
2022-08-03T22:58:16.798Z,2.63
2022-08-03T23:00:53.787Z,2.90
2022-08-03T23:04:00.479Z,2.90
2022-08-03T23:06:16.175Z,2.23
2022-08-03T23:08:47.100Z,3.00
2022-08-03T23:11:16.683Z,3.17
2022-08-03T23:13:50.552Z,2.70
2022-08-03T23:16:27.908Z,3.30
2022-08-03T23:18:59.937Z,2.70
2022-08-03T23:22:00.535Z,2.63
2022-08-03T23:24:31.055Z,2.50
2022-08-03T23:26:59.400Z,3.27
2022-08-03T23:29:31.291Z,2.70
2022-08-03T23:32:00.442Z,2.90
2022-08-03T23:34:46.405Z,3.43
2022-08-03T23:37:15.463Z,3.43
2022-08-03T23:39:46.573Z,3.70
2022-08-03T23:42:16.162Z,2.97
2022-08-03T23:44:46.416Z,2.87
2022-08-03T23:47:14.924Z,2.93
2022-08-03T23:49:43.107Z,3.07
2022-08-03T23:52:18.009Z,3.17
2022-08-03T23:54:56.824Z,3.30
2022-08-03T23:57:30.501Z,3.03
